createdAt,value
2023-05-12T00:00:20.315Z,79958.22
2023-05-12T00:02:01.797Z,79957.56
2023-05-12T00:03:43.358Z,79960.34
2023-05-12T00:05:24.816Z,79953.38
2023-05-12T00:07:06.130Z,79950.31
2023-05-12T00:08:47.424Z,79948.69
2023-05-12T00:10:28.735Z,79949.72
2023-05-12T00:12:10.028Z,79948.34
2023-05-12T00:13:51.418Z,79947.88
2023-05-12T00:15:32.782Z,79947.28
2023-05-12T00:17:14.041Z,79945.22
2023-05-12T00:18:55.387Z,79946.63
2023-05-12T00:20:36.746Z,79948.59
2023-05-12T00:22:18.026Z,79938.09
2023-05-12T00:23:59.318Z,79938.19
2023-05-12T00:25:40.607Z,79940.31
2023-05-12T00:27:21.918Z,79936.34
2023-05-12T00:29:03.241Z,79929.72
2023-05-12T00:30:44.569Z,79932.31
2023-05-12T00:32:25.960Z,79932.75
2023-05-12T00:34:07.252Z,79932.41
2023-05-12T00:35:48.510Z,79920.34
2023-05-12T00:37:29.880Z,79929.59
2023-05-12T00:39:11.176Z,79933.06
2023-05-12T00:40:52.499Z,79927.19
2023-05-12T00:42:33.817Z,79926.97
2023-05-12T00:44:15.172Z,79924.09
2023-05-12T00:45:56.594Z,79927.59
2023-05-12T00:47:37.933Z,79920.84
2023-05-12T00:49:19.245Z,79921.16
2023-05-12T00:51:00.538Z,79922.72
2023-05-12T00:52:41.812Z,79919.72
2023-05-12T00:54:23.131Z,79924.78
2023-05-12T00:56:04.443Z,79924.03
2023-05-12T00:57:45.746Z,79923.50
2023-05-12T00:59:27.050Z,79924.25
2023-05-12T01:01:08.389Z,79926.50
2023-05-12T01:02:49.808Z,79931.56
2023-05-12T01:04:31.201Z,79926.47
2023-05-12T01:06:12.523Z,79924.34
2023-05-12T01:07:54.109Z,79918.69
2023-05-12T01:09:35.448Z,79926.25
2023-05-12T01:11:16.758Z,79913.16
2023-05-12T01:12:58.106Z,79910.94
2023-05-12T01:14:39.449Z,79919.28
2023-05-12T01:16:20.760Z,79915.56
2023-05-12T01:18:02.155Z,79921.97
2023-05-12T01:19:43.514Z,79918.47
2023-05-12T01:21:24.836Z,79913.81
2023-05-12T01:23:06.142Z,79917.50
2023-05-12T01:24:47.482Z,79917.56
2023-05-12T01:26:28.807Z,79923.06
2023-05-12T01:28:10.155Z,79923.56
2023-05-12T01:29:51.458Z,79921.06
2023-05-12T01:31:32.812Z,79919.06
2023-05-12T01:33:14.135Z,79921.41
2023-05-12T01:34:55.436Z,79921.56
2023-05-12T01:36:36.734Z,79921.75
2023-05-12T01:38:18.010Z,79910.72
2023-05-12T01:39:59.303Z,79921.94
2023-05-12T01:41:40.604Z,79922.41
2023-05-12T01:43:22.359Z,79915.84
2023-05-12T01:45:03.807Z,79910.25
2023-05-12T01:46:45.158Z,79915.56
2023-05-12T01:48:26.478Z,79911.22
2023-05-12T01:50:07.779Z,79910.84
2023-05-12T01:51:49.112Z,79916.59
2023-05-12T01:53:30.405Z,79918.06
2023-05-12T01:55:11.731Z,79915.00
2023-05-12T01:56:53.050Z,79910.28
2023-05-12T01:58:34.417Z,79910.91
2023-05-12T02:00:15.729Z,79918.25
2023-05-12T02:01:57.098Z,79916.50
2023-05-12T02:03:38.588Z,79906.47
2023-05-12T02:05:20.010Z,79913.53
2023-05-12T02:07:01.326Z,79915.69
2023-05-12T02:08:42.646Z,79915.09
2023-05-12T02:10:24.014Z,79909.91
2023-05-12T02:12:05.305Z,79914.75
2023-05-12T02:13:46.611Z,79915.56
2023-05-12T02:15:27.875Z,79913.31
2023-05-12T02:17:09.192Z,79909.16
2023-05-12T02:18:50.581Z,79911.94
2023-05-12T02:20:31.976Z,79910.75
2023-05-12T02:22:13.283Z,79910.91
2023-05-12T02:23:54.566Z,79908.28
2023-05-12T02:25:35.852Z,79907.06
2023-05-12T02:27:17.168Z,79909.59
2023-05-12T02:28:58.447Z,79912.16
2023-05-12T02:30:39.724Z,79903.75
2023-05-12T02:32:21.092Z,79906.16
2023-05-12T02:34:04.388Z,79907.72
2023-05-12T02:35:47.085Z,79900.81
2023-05-12T02:37:28.410Z,79909.81
2023-05-12T02:39:09.699Z,79908.34
2023-05-12T02:40:50.980Z,79903.38
2023-05-12T02:42:32.314Z,79900.81
2023-05-12T02:44:13.622Z,79899.94
2023-05-12T02:45:54.967Z,79893.84
2023-05-12T02:47:36.341Z,79896.22
2023-05-12T02:49:17.687Z,79893.88
2023-05-12T02:50:58.975Z,79895.47
2023-05-12T02:52:40.305Z,79894.81
2023-05-12T02:54:21.618Z,79892.22
2023-05-12T02:56:02.893Z,79898.59
2023-05-12T02:57:44.212Z,79898.44
2023-05-12T02:59:25.492Z,79900.13
2023-05-12T03:01:11.317Z,79895.59
2023-05-12T03:02:53.169Z,79899.16
2023-05-12T03:04:34.510Z,79899.09
2023-05-12T03:06:15.788Z,79905.81
2023-05-12T03:07:57.065Z,79900.97
2023-05-12T03:09:38.446Z,79908.88
2023-05-12T03:11:19.724Z,79903.38
2023-05-12T03:13:01.019Z,79895.44
2023-05-12T03:14:42.414Z,79903.59
2023-05-12T03:16:23.696Z,79900.88
2023-05-12T03:18:05.088Z,79905.66
2023-05-12T03:19:46.385Z,79899.88
2023-05-12T03:21:27.682Z,79902.66
2023-05-12T03:23:08.972Z,79890.59
2023-05-12T03:24:50.256Z,79902.72
2023-05-12T03:26:31.550Z,79902.41
2023-05-12T03:28:12.847Z,79900.53
2023-05-12T03:29:54.132Z,79901.44
2023-05-12T03:31:35.483Z,79897.44
2023-05-12T03:33:16.809Z,79896.72
2023-05-12T03:34:58.093Z,79897.69
2023-05-12T03:36:39.384Z,79899.00
2023-05-12T03:38:20.698Z,79893.63
2023-05-12T03:40:01.993Z,79901.09
2023-05-12T03:41:43.379Z,79897.78
2023-05-12T03:43:24.663Z,79900.69
2023-05-12T03:45:05.926Z,79893.94
2023-05-12T03:46:47.284Z,79899.44
2023-05-12T03:48:28.673Z,79898.72
2023-05-12T03:50:09.955Z,79891.09
2023-05-12T03:51:51.265Z,79894.38
2023-05-12T03:53:32.590Z,79902.41
2023-05-12T03:55:13.914Z,79893.00
2023-05-12T03:56:55.193Z,79888.41
2023-05-12T03:58:36.468Z,79880.41
2023-05-12T04:00:18.026Z,79882.88
2023-05-12T04:01:59.559Z,79884.13
2023-05-12T04:03:40.943Z,79886.63
2023-05-12T04:05:22.323Z,79884.16
2023-05-12T04:07:03.619Z,79880.81
2023-05-12T04:08:44.916Z,79890.44
2023-05-12T04:10:26.281Z,79882.69
2023-05-12T04:12:07.557Z,79874.44
2023-05-12T04:13:48.832Z,79881.56
2023-05-12T04:15:30.157Z,79876.41
2023-05-12T04:17:11.445Z,79882.53
2023-05-12T04:18:52.880Z,79881.78
2023-05-12T04:20:34.315Z,79880.88
2023-05-12T04:22:15.635Z,79882.53
2023-05-12T04:23:56.940Z,79881.72
2023-05-12T04:25:38.292Z,79876.63
2023-05-12T04:27:19.594Z,79879.72
2023-05-12T04:29:00.885Z,79882.53
2023-05-12T04:30:42.268Z,79878.78
2023-05-12T04:32:23.646Z,79885.47
2023-05-12T04:34:04.961Z,79885.59
2023-05-12T04:35:46.281Z,79892.63
2023-05-12T04:37:27.591Z,79885.38
2023-05-12T04:39:08.859Z,79886.22
2023-05-12T04:40:50.175Z,79886.88
2023-05-12T04:42:31.466Z,79887.63
2023-05-12T04:44:12.771Z,79890.41
2023-05-12T04:45:54.189Z,79891.44
2023-05-12T04:47:35.537Z,79886.25
2023-05-12T04:49:16.849Z,79894.03
2023-05-12T04:50:58.176Z,79888.47
2023-05-12T04:52:39.465Z,79887.09
2023-05-12T04:54:20.760Z,79877.47
2023-05-12T04:56:02.099Z,79888.47
2023-05-12T04:57:43.404Z,79895.53
2023-05-12T04:59:24.766Z,79891.09
2023-05-12T05:01:06.131Z,79890.50
2023-05-12T05:02:47.535Z,79892.38
2023-05-12T05:04:28.853Z,79889.78
2023-05-12T05:06:10.178Z,79892.56
2023-05-12T05:07:51.478Z,79888.59
2023-05-12T05:09:34.933Z,79898.28
2023-05-12T05:11:17.443Z,79892.66
2023-05-12T05:12:58.763Z,79890.75
2023-05-12T05:14:40.061Z,79899.47
2023-05-12T05:16:21.383Z,79898.31
2023-05-12T05:18:02.734Z,79889.16
2023-05-12T05:19:55.129Z,79894.38
2023-05-12T05:21:39.956Z,79894.97
2023-05-12T05:23:21.233Z,79888.66
2023-05-12T05:25:02.547Z,79887.94
2023-05-12T05:26:43.856Z,79887.44
2023-05-12T05:28:25.189Z,79892.13
2023-05-12T05:30:06.493Z,79889.78
2023-05-12T05:31:47.849Z,79889.44
2023-05-12T05:33:29.206Z,79899.94
2023-05-12T05:35:10.541Z,79893.69
2023-05-12T05:36:51.846Z,79892.06
2023-05-12T05:38:33.223Z,79890.88
2023-05-12T05:40:14.522Z,79893.72
2023-05-12T05:41:55.892Z,79895.97
2023-05-12T05:43:37.183Z,79900.28
2023-05-12T05:45:18.690Z,79892.06
2023-05-12T05:47:00.128Z,79891.81
2023-05-12T05:48:41.514Z,79896.88
2023-05-12T05:50:22.863Z,79896.41
2023-05-12T05:52:04.145Z,79897.88
2023-05-12T05:53:45.485Z,79896.88
2023-05-12T05:55:26.802Z,79902.22
2023-05-12T05:57:08.131Z,79901.59
2023-05-12T05:58:49.403Z,79895.47
2023-05-12T06:00:30.673Z,79898.56
2023-05-12T06:02:11.974Z,79890.38
2023-05-12T06:03:53.393Z,79898.81
2023-05-12T06:05:34.757Z,79887.47
2023-05-12T06:07:16.125Z,79892.19
2023-05-12T06:08:59.269Z,79887.53
2023-05-12T06:10:40.546Z,79896.06
2023-05-12T06:12:21.893Z,79895.47
2023-05-12T06:14:03.388Z,79903.84
2023-05-12T06:15:44.707Z,79899.47
2023-05-12T06:17:26.074Z,79902.72
2023-05-12T06:19:07.510Z,79899.19
2023-05-12T06:20:48.831Z,79898.56
2023-05-12T06:22:30.305Z,79900.41
2023-05-12T06:24:11.605Z,79905.16
2023-05-12T06:25:52.931Z,79903.91
2023-05-12T06:27:34.246Z,79901.59
2023-05-12T06:29:15.550Z,79904.22
2023-05-12T06:30:56.818Z,79899.91
2023-05-12T06:32:38.157Z,79904.13
2023-05-12T06:34:19.486Z,79900.25
2023-05-12T06:36:00.768Z,79906.97
2023-05-12T06:37:42.076Z,79902.16
2023-05-12T06:39:23.382Z,79898.84
2023-05-12T06:41:04.757Z,79908.75
2023-05-12T06:42:46.081Z,79904.88
2023-05-12T06:44:27.380Z,79899.72
2023-05-12T06:46:08.722Z,79907.75
2023-05-12T06:47:50.251Z,79908.41
2023-05-12T06:49:31.639Z,79904.63
2023-05-12T06:51:12.925Z,79897.56
2023-05-12T06:52:54.231Z,79906.53
2023-05-12T06:54:35.510Z,79911.50
2023-05-12T06:56:16.826Z,79905.91
2023-05-12T06:57:58.131Z,79907.53
2023-05-12T06:59:39.437Z,79912.09
2023-05-12T07:01:20.829Z,79909.00
2023-05-12T07:03:02.185Z,79906.88
2023-05-12T07:04:43.539Z,79900.66
2023-05-12T07:06:24.840Z,79909.97
2023-05-12T07:08:06.130Z,79906.78
2023-05-12T07:09:47.416Z,79896.69
2023-05-12T07:11:28.721Z,79902.59
2023-05-12T07:13:10.039Z,79897.72
2023-05-12T07:14:51.352Z,79897.56
2023-05-12T07:16:32.714Z,79900.78
2023-05-12T07:18:14.045Z,79913.44
2023-05-12T07:19:55.316Z,79911.53
2023-05-12T07:21:36.625Z,79909.34
2023-05-12T07:23:17.913Z,79910.28
2023-05-12T07:24:59.228Z,79907.75
2023-05-12T07:26:40.545Z,79909.19
2023-05-12T07:28:21.891Z,79904.19
2023-05-12T07:30:03.203Z,79903.22
2023-05-12T07:31:44.608Z,79902.59
2023-05-12T07:33:26.051Z,79902.34
2023-05-12T07:35:07.319Z,79907.50
2023-05-12T07:36:48.618Z,79903.47
2023-05-12T07:38:29.889Z,79909.03
2023-05-12T07:40:11.165Z,79897.38
2023-05-12T07:41:52.762Z,79907.28
2023-05-12T07:43:34.092Z,79904.63
2023-05-12T07:45:15.445Z,79909.44
2023-05-12T07:46:56.844Z,79910.88
2023-05-12T07:48:38.122Z,79909.09
2023-05-12T07:50:19.406Z,79911.31
2023-05-12T07:52:00.888Z,79907.81
2023-05-12T07:53:42.150Z,79908.34
2023-05-12T07:55:23.564Z,79907.38
2023-05-12T07:57:04.994Z,79898.28
2023-05-12T07:58:47.724Z,79898.66
2023-05-12T08:00:29.093Z,79895.13
2023-05-12T08:02:10.395Z,79898.75
2023-05-12T08:03:52.188Z,79894.34
2023-05-12T08:05:33.576Z,79891.38
2023-05-12T08:07:14.847Z,79889.84
2023-05-12T08:08:56.161Z,79894.19
2023-05-12T08:10:37.469Z,79886.78
2023-05-12T08:12:18.774Z,79887.22
2023-05-12T08:14:00.099Z,79892.16
2023-05-12T08:15:41.424Z,79889.03
2023-05-12T08:17:22.950Z,79879.53
2023-05-12T08:19:04.390Z,79894.16
2023-05-12T08:20:45.744Z,79888.66
2023-05-12T08:22:27.059Z,79888.72
2023-05-12T08:24:08.331Z,79900.81
2023-05-12T08:25:49.652Z,79893.97
2023-05-12T08:27:30.970Z,79896.63
2023-05-12T08:29:12.237Z,79895.88
2023-05-12T08:30:53.710Z,79891.03
2023-05-12T08:32:35.073Z,79893.06
2023-05-12T08:34:16.400Z,79890.16
2023-05-12T08:35:57.714Z,79889.97
2023-05-12T08:37:39.039Z,79895.06
2023-05-12T08:39:20.323Z,79889.75
2023-05-12T08:41:01.633Z,79889.91
2023-05-12T08:42:43.263Z,79886.56
2023-05-12T08:44:24.624Z,79896.88
2023-05-12T08:46:05.942Z,79896.81
2023-05-12T08:47:47.309Z,79896.53
2023-05-12T08:49:28.670Z,79900.47
2023-05-12T08:51:12.287Z,79890.41
2023-05-12T08:52:53.675Z,79886.88
2023-05-12T08:54:37.937Z,79893.53
2023-05-12T08:58:11.056Z,79899.84
2023-05-12T08:59:52.353Z,79890.16
2023-05-12T09:01:34.766Z,79889.25
2023-05-12T09:03:17.940Z,79888.28
2023-05-12T09:04:59.254Z,79885.66
2023-05-12T09:06:40.583Z,79893.09
2023-05-12T09:08:21.924Z,79895.06
2023-05-12T09:10:03.243Z,79895.59
2023-05-12T09:11:44.540Z,79898.13
2023-05-12T09:13:25.855Z,79896.78
2023-05-12T09:15:07.156Z,79895.41
2023-05-12T09:16:48.488Z,79904.38
2023-05-12T09:18:29.847Z,79905.50
2023-05-12T09:20:20.612Z,79897.28
2023-05-12T09:22:11.598Z,79902.19
2023-05-12T09:23:52.907Z,79901.63
2023-05-12T09:25:34.247Z,79904.53
2023-05-12T09:27:15.571Z,79904.81
2023-05-12T09:28:56.856Z,79901.25
2023-05-12T09:30:38.323Z,79904.81
2023-05-12T09:32:19.694Z,79901.75
2023-05-12T09:34:00.986Z,79900.56
2023-05-12T09:35:42.382Z,79898.63
2023-05-12T09:37:24.253Z,79899.47
2023-05-12T09:39:05.564Z,79905.75
2023-05-12T09:40:46.831Z,79908.00
2023-05-12T09:42:28.135Z,79897.66
2023-05-12T09:44:09.416Z,79898.00
2023-05-12T09:45:50.732Z,79894.66
2023-05-12T09:47:32.071Z,79889.63
2023-05-12T09:49:13.375Z,79895.22
2023-05-12T09:50:54.681Z,79895.31
2023-05-12T09:52:36.070Z,79889.84
2023-05-12T09:54:17.361Z,79896.06
2023-05-12T09:55:58.617Z,79891.47
2023-05-12T09:57:39.954Z,79897.78
2023-05-12T09:59:21.260Z,79892.81
2023-05-12T10:02:46.763Z,79895.34
2023-05-12T10:04:28.107Z,79880.97
2023-05-12T10:06:09.445Z,79881.25
2023-05-12T10:07:50.922Z,79881.22
2023-05-12T10:09:32.394Z,79879.25
2023-05-12T10:11:13.677Z,79879.13
2023-05-12T10:12:54.989Z,79878.94
2023-05-12T10:14:36.283Z,79879.13
2023-05-12T10:16:17.647Z,79885.94
2023-05-12T10:17:59.060Z,79877.72
2023-05-12T10:19:40.365Z,79887.25
2023-05-12T10:21:21.639Z,79878.41
2023-05-12T10:23:03.006Z,79876.84
2023-05-12T10:24:44.273Z,79875.69
2023-05-12T10:26:25.618Z,79875.78
2023-05-12T10:28:06.950Z,79873.97
2023-05-12T10:29:48.303Z,79869.50
2023-05-12T10:31:29.689Z,79876.59
2023-05-12T10:33:11.013Z,79869.34
2023-05-12T10:34:52.344Z,79866.75
2023-05-12T10:36:33.701Z,79864.94
2023-05-12T10:38:15.036Z,79862.97
2023-05-12T10:39:56.383Z,79869.09
2023-05-12T10:41:37.677Z,79867.25
2023-05-12T10:43:18.988Z,79865.38
2023-05-12T10:45:00.361Z,79873.19
2023-05-12T10:46:41.938Z,79862.81
2023-05-12T10:48:23.914Z,79854.44
2023-05-12T10:50:05.585Z,79861.75
2023-05-12T10:51:46.853Z,79851.88
2023-05-12T10:53:38.014Z,79848.69
2023-05-12T10:55:26.964Z,79851.00
2023-05-12T10:57:08.743Z,79859.50
2023-05-12T10:58:51.084Z,79858.97
2023-05-12T11:00:33.068Z,79850.56
2023-05-12T11:02:15.790Z,79849.88
2023-05-12T11:03:57.569Z,79854.97
2023-05-12T11:05:40.095Z,79854.97
2023-05-12T11:07:22.365Z,79858.81
2023-05-12T11:09:05.037Z,79858.91
2023-05-12T11:10:47.630Z,79859.03
2023-05-12T11:12:29.067Z,79870.56
2023-05-12T11:14:10.356Z,79862.53
2023-05-12T11:15:51.785Z,79867.66
2023-05-12T11:17:33.278Z,79867.75
2023-05-12T11:19:15.263Z,79871.06
2023-05-12T11:20:56.859Z,79871.47
2023-05-12T11:22:38.412Z,79869.91
2023-05-12T11:24:19.925Z,79863.72
2023-05-12T11:26:01.650Z,79866.84
2023-05-12T11:27:43.223Z,79868.88
2023-05-12T11:29:24.613Z,79867.84
2023-05-12T11:31:05.964Z,79858.22
2023-05-12T11:32:47.457Z,79865.34
2023-05-12T11:34:28.771Z,79859.31
2023-05-12T11:36:10.192Z,79862.84
2023-05-12T11:37:51.531Z,79862.72
2023-05-12T11:39:32.822Z,79858.16
2023-05-12T11:41:14.134Z,79866.59
2023-05-12T11:42:55.744Z,79854.06
2023-05-12T11:44:37.563Z,79860.47
2023-05-12T11:46:19.118Z,79859.66
2023-05-12T11:48:00.504Z,79857.03
2023-05-12T11:49:42.023Z,79864.97
2023-05-12T11:51:23.601Z,79857.63
2023-05-12T11:53:04.901Z,79868.72
2023-05-12T11:54:46.185Z,79869.13
2023-05-12T11:56:27.695Z,79862.41
2023-05-12T11:58:09.151Z,79864.44
2023-05-12T11:59:50.661Z,79865.72
2023-05-12T12:01:32.240Z,79874.16
2023-05-12T12:03:13.698Z,79874.09
2023-05-12T12:04:55.202Z,79882.63
2023-05-12T12:06:36.626Z,79879.69
2023-05-12T12:08:17.982Z,79876.09
2023-05-12T12:09:59.282Z,79883.28
2023-05-12T12:11:40.832Z,79879.94
2023-05-12T12:13:22.289Z,79881.97
2023-05-12T12:15:03.749Z,79879.47
2023-05-12T12:16:45.104Z,79889.66
2023-05-12T12:18:26.557Z,79890.50
2023-05-12T12:20:08.340Z,79897.53
2023-05-12T12:21:49.900Z,79899.31
2023-05-12T12:23:37.797Z,79894.88
2023-05-12T12:25:28.849Z,79900.34
2023-05-12T12:27:10.389Z,79906.75
2023-05-12T12:28:52.002Z,79901.00
2023-05-12T12:30:33.339Z,79908.91
2023-05-12T12:32:14.659Z,79913.84
2023-05-12T12:33:55.988Z,79905.84
2023-05-12T12:35:37.264Z,79903.53
2023-05-12T12:37:18.586Z,79900.22
2023-05-12T12:38:59.894Z,79898.59
2023-05-12T12:40:41.449Z,79898.31
2023-05-12T12:42:22.978Z,79908.09
2023-05-12T12:44:04.282Z,79907.09
2023-05-12T12:45:45.617Z,79900.47
2023-05-12T12:47:27.158Z,79911.25
2023-05-12T12:49:08.889Z,79908.97
2023-05-12T12:50:50.263Z,79909.47
2023-05-12T12:52:31.571Z,79908.03
2023-05-12T12:54:12.912Z,79905.00
2023-05-12T12:55:54.904Z,79910.53
2023-05-12T12:57:36.455Z,79908.03
2023-05-12T12:59:17.774Z,79918.34
2023-05-12T13:00:59.288Z,79898.38
2023-05-12T13:02:40.933Z,79909.09
2023-05-12T13:04:22.344Z,79908.25
2023-05-12T13:06:03.865Z,79917.06
2023-05-12T13:07:45.561Z,79913.72
2023-05-12T13:09:27.145Z,79915.41
2023-05-12T13:11:08.436Z,79921.53
2023-05-12T13:12:49.908Z,79924.22
2023-05-12T13:14:31.501Z,79926.53
2023-05-12T13:16:13.005Z,79921.75
2023-05-12T13:17:54.433Z,79925.06
2023-05-12T13:19:37.930Z,79914.75
2023-05-12T13:21:19.766Z,79913.78
2023-05-12T13:23:01.536Z,79917.31
2023-05-12T13:24:43.018Z,79912.41
2023-05-12T13:26:24.322Z,79914.47
2023-05-12T13:28:05.642Z,79905.53
2023-05-12T13:29:46.938Z,79900.66
2023-05-12T13:31:28.290Z,79913.91
2023-05-12T13:33:10.137Z,79906.06
2023-05-12T13:34:51.690Z,79904.72
2023-05-12T13:36:33.072Z,79906.50
2023-05-12T13:38:14.399Z,79909.22
2023-05-12T13:39:55.726Z,79910.50
2023-05-12T13:41:37.021Z,79903.59
2023-05-12T13:43:18.546Z,79897.63
2023-05-12T13:45:00.340Z,79907.44
2023-05-12T13:46:41.890Z,79905.56
2023-05-12T13:48:23.203Z,79896.97
2023-05-12T13:50:04.540Z,79908.63
2023-05-12T13:51:45.826Z,79907.16
2023-05-12T13:53:27.134Z,79907.00
2023-05-12T13:55:08.460Z,79905.56
2023-05-12T13:56:49.734Z,79899.88
2023-05-12T13:58:31.013Z,79886.19
2023-05-12T14:00:12.388Z,79893.63
2023-05-12T14:01:53.683Z,79891.72
2023-05-12T14:03:35.348Z,79899.53
2023-05-12T14:05:17.136Z,79895.94
2023-05-12T14:06:58.560Z,79899.13
2023-05-12T14:08:39.843Z,79900.28
2023-05-12T14:10:21.493Z,79900.09
2023-05-12T14:12:02.986Z,79895.16
2023-05-12T14:13:44.301Z,79897.06
2023-05-12T14:15:40.027Z,79893.75
2023-05-12T14:17:25.925Z,79901.75
2023-05-12T14:19:07.325Z,79902.63
2023-05-12T14:20:48.844Z,79902.78
2023-05-12T14:22:30.453Z,79901.78
2023-05-12T14:24:11.913Z,79898.41
2023-05-12T14:25:53.411Z,79906.06
2023-05-12T14:27:34.834Z,79900.25
2023-05-12T14:29:16.136Z,79908.84
2023-05-12T14:30:57.446Z,79904.72
2023-05-12T14:32:38.804Z,79911.25
2023-05-12T14:34:20.156Z,79913.09
2023-05-12T14:36:07.243Z,79908.06
2023-05-12T14:37:50.144Z,79912.41
2023-05-12T14:39:31.751Z,79912.25
2023-05-12T14:41:13.263Z,79908.53
2023-05-12T14:42:54.965Z,79901.50
2023-05-12T14:44:36.477Z,79910.22
2023-05-12T14:46:18.190Z,79912.31
2023-05-12T14:47:59.878Z,79914.44
2023-05-12T14:49:42.078Z,79905.41
2023-05-12T14:51:25.129Z,79912.41
2023-05-12T14:53:06.657Z,79908.56
2023-05-12T14:54:47.948Z,79911.06
2023-05-12T14:56:29.308Z,79914.97
2023-05-12T14:58:10.589Z,79913.13
2023-05-12T14:59:51.903Z,79922.84
2023-05-12T15:01:33.831Z,79919.69
2023-05-12T15:03:15.740Z,79915.38
2023-05-12T15:04:57.165Z,79921.06
2023-05-12T15:06:38.490Z,79922.31
2023-05-12T15:08:19.822Z,79915.47
2023-05-12T15:10:01.142Z,79918.84
2023-05-12T15:11:42.459Z,79917.69
2023-05-12T15:13:23.907Z,79921.31
2023-05-12T15:15:05.259Z,79918.97
2023-05-12T15:16:46.611Z,79927.78
2023-05-12T15:18:28.144Z,79926.53
2023-05-12T15:20:09.489Z,79919.53
2023-05-12T15:21:50.798Z,79925.44
2023-05-12T15:23:32.121Z,79924.50
2023-05-12T15:25:13.403Z,79922.25
2023-05-12T15:26:54.730Z,79917.19
2023-05-12T15:28:36.044Z,79914.78
2023-05-12T15:30:17.366Z,79918.91
2023-05-12T15:31:58.877Z,79921.13
2023-05-12T15:33:40.583Z,79920.06
2023-05-12T15:35:22.246Z,79916.91
2023-05-12T15:37:03.801Z,79919.41
2023-05-12T15:38:45.089Z,79919.41
2023-05-12T15:40:26.402Z,79914.72
2023-05-12T15:42:07.989Z,79915.78
2023-05-12T15:43:49.810Z,79921.50
2023-05-12T15:45:31.958Z,79917.25
2023-05-12T15:47:13.497Z,79918.03
2023-05-12T15:48:54.764Z,79912.91
2023-05-12T15:50:36.073Z,79920.75
2023-05-12T15:52:17.411Z,79917.25
2023-05-12T15:53:58.686Z,79922.22
2023-05-12T15:55:39.998Z,79915.34
2023-05-12T15:57:21.972Z,79907.88
2023-05-12T15:59:03.410Z,79913.44
2023-05-12T16:00:44.932Z,79909.13
2023-05-12T16:02:26.580Z,79916.47
2023-05-12T16:04:07.978Z,79914.69
2023-05-12T16:05:49.595Z,79919.69
2023-05-12T16:07:31.366Z,79923.16
2023-05-12T16:09:12.813Z,79926.16
2023-05-12T16:10:54.095Z,79920.69
2023-05-12T16:12:35.382Z,79929.50
2023-05-12T16:14:16.660Z,79923.34
2023-05-12T16:15:58.039Z,79922.63
2023-05-12T16:17:39.374Z,79925.63
2023-05-12T16:19:20.713Z,79926.97
2023-05-12T16:21:02.035Z,79926.09
2023-05-12T16:22:43.579Z,79921.41
2023-05-12T16:24:25.136Z,79926.09
2023-05-12T16:26:06.655Z,79927.47
2023-05-12T16:27:48.288Z,79934.41
2023-05-12T16:29:29.692Z,79932.38
2023-05-12T16:31:11.194Z,79930.81
2023-05-12T16:32:52.707Z,79937.72
2023-05-12T16:34:34.245Z,79941.38
2023-05-12T16:36:17.666Z,79934.50
2023-05-12T16:37:59.105Z,79943.28
2023-05-12T16:39:40.685Z,79952.25
2023-05-12T16:41:22.238Z,79940.81
2023-05-12T16:43:03.531Z,79938.34
2023-05-12T16:44:44.996Z,79943.31
2023-05-12T16:46:26.557Z,79949.84
2023-05-12T16:48:07.957Z,79950.53
2023-05-12T16:49:50.060Z,79943.59
2023-05-12T16:51:31.563Z,79947.94
2023-05-12T16:53:12.910Z,79945.25
2023-05-12T16:54:54.193Z,79953.69
2023-05-12T16:56:35.772Z,79950.44
2023-05-12T16:58:17.336Z,79953.53
2023-05-12T16:59:58.729Z,79952.03
2023-05-12T17:01:40.084Z,79954.06
2023-05-12T17:03:21.527Z,79951.66
2023-05-12T17:05:02.903Z,79954.16
2023-05-12T17:06:44.496Z,79949.22
2023-05-12T17:08:26.137Z,79949.59
2023-05-12T17:10:07.417Z,79952.88
2023-05-12T17:11:48.849Z,79954.91
2023-05-12T17:13:30.299Z,79955.78
2023-05-12T17:15:11.584Z,79958.44
2023-05-12T17:16:53.086Z,79959.13
2023-05-12T17:19:13.466Z,79963.00
2023-05-12T17:20:35.969Z,79964.91
2023-05-12T17:22:17.287Z,79961.13
2023-05-12T17:23:58.602Z,79967.06
2023-05-12T17:25:39.900Z,79967.03
2023-05-12T17:27:21.182Z,79968.13
2023-05-12T17:29:02.509Z,79967.41
2023-05-12T17:30:43.804Z,79972.75
2023-05-12T17:32:25.113Z,79968.94
2023-05-12T17:34:06.478Z,79970.25
2023-05-12T17:35:59.842Z,79971.00
2023-05-12T17:37:49.805Z,79966.03
2023-05-12T17:39:31.450Z,79963.72
2023-05-12T17:41:12.896Z,79960.06
2023-05-12T17:42:54.189Z,79962.41
2023-05-12T17:44:36.211Z,79969.25
2023-05-12T17:46:17.739Z,79963.75
2023-05-12T17:47:59.348Z,79968.91
2023-05-12T17:49:41.089Z,79973.63
2023-05-12T17:51:22.541Z,79972.91
2023-05-12T17:53:03.823Z,79971.03
2023-05-12T17:54:45.339Z,79970.06
2023-05-12T17:56:26.845Z,79961.69
2023-05-12T17:58:08.398Z,79966.00
2023-05-12T17:59:49.869Z,79966.13
2023-05-12T18:01:31.336Z,79976.59
2023-05-12T18:03:12.733Z,79971.91
2023-05-12T18:04:54.161Z,79978.84
2023-05-12T18:06:36.164Z,79982.69
2023-05-12T18:08:17.624Z,79982.66
2023-05-12T18:09:59.142Z,79976.03
2023-05-12T18:11:40.852Z,79983.72
2023-05-12T18:13:22.298Z,79987.47
2023-05-12T18:15:03.812Z,79986.09
2023-05-12T18:16:45.394Z,79988.34
2023-05-12T18:18:26.844Z,79988.78
2023-05-12T18:20:08.441Z,79982.75
2023-05-12T18:21:50.113Z,79985.38
2023-05-12T18:23:31.662Z,79994.63
2023-05-12T18:25:13.035Z,79989.13
2023-05-12T18:26:54.436Z,79996.16
2023-05-12T18:28:35.742Z,79994.22
2023-05-12T18:30:17.030Z,80000.53
2023-05-12T18:31:58.477Z,79993.13
2023-05-12T18:33:40.136Z,79997.44
2023-05-12T18:35:21.840Z,79993.81
2023-05-12T18:37:03.442Z,79994.66
2023-05-12T18:38:44.742Z,79996.56
2023-05-12T18:40:26.031Z,79996.41
2023-05-12T18:42:07.471Z,79995.78
2023-05-12T18:43:48.766Z,79995.59
2023-05-12T18:45:30.320Z,79997.31
2023-05-12T18:47:11.966Z,79999.53
2023-05-12T18:48:53.268Z,80006.06
2023-05-12T18:50:34.601Z,80004.88
2023-05-12T18:52:15.934Z,80012.78
2023-05-12T18:53:57.210Z,80015.00
2023-05-12T18:55:38.515Z,80020.97
2023-05-12T18:57:19.877Z,80018.72
2023-05-12T18:59:01.158Z,80019.31
2023-05-12T19:00:42.471Z,80030.34
2023-05-12T19:02:23.849Z,80025.91
2023-05-12T19:04:05.188Z,80037.84
2023-05-12T19:05:47.219Z,80034.59
2023-05-12T19:07:28.842Z,80038.28
2023-05-12T19:09:10.150Z,80047.97
2023-05-12T19:10:51.686Z,80047.19
2023-05-12T19:12:33.192Z,80051.06
2023-05-12T19:14:14.655Z,80049.97
2023-05-12T19:15:56.296Z,80044.75
2023-05-12T19:17:37.892Z,80053.28
2023-05-12T19:19:19.310Z,80054.50
2023-05-12T19:21:00.584Z,80051.63
2023-05-12T19:22:41.875Z,80046.81
2023-05-12T19:24:23.156Z,80052.53
2023-05-12T19:26:04.459Z,80050.94
2023-05-12T19:27:45.778Z,80056.78
2023-05-12T19:29:27.138Z,80057.19
2023-05-12T19:31:09.092Z,80057.19
2023-05-12T19:32:50.694Z,80057.84
2023-05-12T19:34:32.009Z,80064.16
2023-05-12T19:36:13.313Z,80063.41
2023-05-12T19:37:54.683Z,80063.19
2023-05-12T19:39:36.045Z,80063.47
2023-05-12T19:41:17.351Z,80065.94
2023-05-12T19:42:59.210Z,80068.78
2023-05-12T19:44:40.723Z,80070.28
2023-05-12T19:46:22.119Z,80075.50
2023-05-12T19:48:03.494Z,80068.53
2023-05-12T19:49:44.877Z,80072.31
2023-05-12T19:51:26.405Z,80067.41
2023-05-12T19:53:07.974Z,80070.97
2023-05-12T19:54:49.287Z,80073.44
2023-05-12T19:56:30.587Z,80074.59